PWSweather.com
Personal Weather Stations
Station Observations
TARRYHILL
Tarrytown, NY 10591

Tarrytown, NY 10591

Lat: 41.05185, Lon: -73.85296

Elevation: 341

Station Type: Davis Vantage Vue

Latest ConditionsUpdated 11:10:01 PM EST Sunday, Jan 22, 2017
Currently Today's Max Today's Min Today's Average
Temperature 44.0°F6.7°C 50.0°F10.0°C 42.1°F5.6°C 46.1°F7.8°C
Dew Point 41.0°F5.0°C 48.3°F9.1°C 41.0°F5.0°C 44.0°F6.7°C
Winds 2.3 mph ESE3.7 kmh ESE 3.5 mph E5.6 kmh E - 0.5 mph 0.8 kmh
Wind Gusts 3.5 mph5.6 kmh 10.4 mph16.7 kmh - -
Humidity 89% 98% 86% 92%
Pressure 29.84 in1010.5 mb 29.84 in1010.5 mb 29.70 in1005.8 mb -
Precipitation - 0.02 in0.5 mm - -
Hour Temp Dew Point Humidity Winds Wind Gusts Pressure Precip Precip Rate Daily Precip Total
11:10 PM 44.0°F6.7°C 41.0°F5.0°C 89% 2.3 mph ESE3.7 kmh ESE 3.5 mph5.6 kmh 29.84 in1010.5 mb - 0.00 in0.0 mm 0.02 in0.5 mm
11:00 PM 44.1°F6.7°C 41.1°F5.1°C 89% Calm Calm 1.2 mph1.9 kmh 29.84 in1010.5 mb - 0.00 in0.0 mm 0.02 in0.5 mm
10:50 PM 44.3°F6.8°C 41.3°F5.2°C 89% 2.3 mph NE3.7 kmh NE 10.4 mph16.7 kmh 29.84 in1010.5 mb - 0.00 in0.0 mm 0.02 in0.5 mm
10:40 PM 44.4°F6.9°C 41.4°F5.2°C 89% 3.5 mph E5.6 kmh E 4.6 mph7.4 kmh 29.84 in1010.5 mb - 0.00 in0.0 mm 0.02 in0.5 mm
10:30 PM 44.5°F6.9°C 41.2°F5.1°C 88% Calm Calm 1.2 mph1.9 kmh 29.84 in1010.5 mb - 0.00 in0.0 mm 0.02 in0.5 mm
10:20 PM 44.7°F7.1°C 41.4°F5.2°C 88% 3.5 mph ENE5.6 kmh ENE 5.8 mph9.3 kmh 29.83 in1010.2 mb - 0.00 in0.0 mm 0.02 in0.5 mm
10:10 PM 45.0°F7.2°C 41.4°F5.2°C 87% 3.5 mph NE5.6 kmh NE 9.2 mph14.8 kmh 29.82 in1009.8 mb - 0.00 in0.0 mm 0.02 in0.5 mm
10:00 PM 45.2°F7.3°C 41.3°F5.2°C 86% 1.2 mph SE1.9 kmh SE 5.8 mph9.3 kmh 29.82 in1009.8 mb - 0.00 in0.0 mm 0.02 in0.5 mm
09:50 PM 45.2°F7.3°C 41.3°F5.2°C 86% 3.5 mph NW5.6 kmh NW 6.9 mph11.1 kmh 29.82 in1009.8 mb - 0.00 in0.0 mm 0.02 in0.5 mm
09:40 PM 45.3°F7.4°C 41.4°F5.2°C 86% Calm Calm 3.5 mph5.6 kmh 29.82 in1009.8 mb - 0.00 in0.0 mm 0.02 in0.5 mm
09:30 PM 45.4°F7.4°C 41.5°F5.3°C 86% 1.2 mph ENE1.9 kmh ENE 4.6 mph7.4 kmh 29.81 in1009.5 mb - 0.00 in0.0 mm 0.02 in0.5 mm
09:20 PM 45.4°F7.4°C 41.5°F5.3°C 86% 3.5 mph E5.6 kmh E 8.1 mph13.0 kmh 29.81 in1009.5 mb - 0.00 in0.0 mm 0.02 in0.5 mm
09:10 PM 45.4°F7.4°C 41.5°F5.3°C 86% 1.2 mph NE1.9 kmh NE 3.5 mph5.6 kmh 29.81 in1009.5 mb - 0.00 in0.0 mm 0.02 in0.5 mm
09:00 PM 45.5°F7.5°C 41.9°F5.5°C 87% 1.2 mph NNW1.9 kmh NNW 3.5 mph5.6 kmh 29.80 in1009.1 mb - 0.00 in0.0 mm 0.02 in0.5 mm
08:50 PM 45.7°F7.6°C 42.1°F5.6°C 87% 1.2 mph ENE1.9 kmh ENE 3.5 mph5.6 kmh 29.80 in1009.1 mb - 0.00 in0.0 mm 0.02 in0.5 mm
08:40 PM 46.1°F7.8°C 42.4°F5.8°C 87% Calm Calm 1.2 mph1.9 kmh 29.79 in1008.8 mb - 0.00 in0.0 mm 0.02 in0.5 mm
08:30 PM 46.5°F8.1°C 42.9°F6.1°C 87% Calm Calm 1.2 mph1.9 kmh 29.79 in1008.8 mb - 0.00 in0.0 mm 0.02 in0.5 mm
08:20 PM 46.8°F8.2°C 43.1°F6.2°C 87% Calm Calm -- 29.79 in1008.8 mb - 0.00 in0.0 mm 0.02 in0.5 mm
08:10 PM 46.9°F8.3°C 43.3°F6.3°C 87% Calm Calm 1.2 mph1.9 kmh 29.79 in1008.8 mb - 0.00 in0.0 mm 0.02 in0.5 mm
08:00 PM 46.9°F8.3°C 43.3°F6.3°C 87% Calm Calm -- 29.79 in1008.8 mb - 0.00 in0.0 mm 0.02 in0.5 mm
07:50 PM 47.1°F8.4°C 43.4°F6.3°C 87% Calm Calm 1.2 mph1.9 kmh 29.79 in1008.8 mb - 0.00 in0.0 mm 0.02 in0.5 mm
07:40 PM 47.1°F8.4°C 43.4°F6.3°C 87% 1.2 mph ENE1.9 kmh ENE 3.5 mph5.6 kmh 29.78 in1008.5 mb - 0.00 in0.0 mm 0.02 in0.5 mm
07:30 PM 47.1°F8.4°C 43.4°F6.3°C 87% Calm Calm -- 29.79 in1008.8 mb - 0.00 in0.0 mm 0.02 in0.5 mm
07:20 PM 47.2°F8.4°C 43.3°F6.3°C 86% Calm Calm 1.2 mph1.9 kmh 29.79 in1008.8 mb - 0.00 in0.0 mm 0.02 in0.5 mm
07:10 PM 47.3°F8.5°C 43.3°F6.3°C 86% Calm Calm 3.5 mph5.6 kmh 29.78 in1008.5 mb - 0.00 in0.0 mm 0.02 in0.5 mm
07:00 PM 47.4°F8.6°C 43.4°F6.3°C 86% Calm Calm 1.2 mph1.9 kmh 29.78 in1008.5 mb - 0.00 in0.0 mm 0.02 in0.5 mm
06:50 PM 47.5°F8.6°C 43.5°F6.4°C 86% Calm Calm -- 29.78 in1008.5 mb - 0.00 in0.0 mm 0.02 in0.5 mm
06:40 PM 47.5°F8.6°C 43.5°F6.4°C 86% 1.2 mph NE1.9 kmh NE 2.3 mph3.7 kmh 29.77 in1008.1 mb - 0.00 in0.0 mm 0.02 in0.5 mm
06:30 PM 47.6°F8.7°C 43.6°F6.4°C 86% Calm Calm 1.2 mph1.9 kmh 29.77 in1008.1 mb - 0.00 in0.0 mm 0.02 in0.5 mm
06:20 PM 47.6°F8.7°C 43.9°F6.6°C 87% Calm Calm -- 29.76 in1007.8 mb - 0.00 in0.0 mm 0.02 in0.5 mm
06:10 PM 47.7°F8.7°C 44.0°F6.7°C 87% Calm Calm 2.3 mph3.7 kmh 29.76 in1007.8 mb - 0.00 in0.0 mm 0.02 in0.5 mm
06:00 PM 47.8°F8.8°C 44.1°F6.7°C 87% Calm Calm 1.2 mph1.9 kmh 29.76 in1007.8 mb - 0.00 in0.0 mm 0.02 in0.5 mm
05:50 PM 47.9°F8.8°C 44.2°F6.8°C 87% 1.2 mph S1.9 kmh S 4.6 mph7.4 kmh 29.76 in1007.8 mb - 0.00 in0.0 mm 0.02 in0.5 mm
05:40 PM 47.9°F8.8°C 44.2°F6.8°C 87% Calm Calm 2.3 mph3.7 kmh 29.77 in1008.1 mb - 0.00 in0.0 mm 0.02 in0.5 mm
05:30 PM 48.1°F8.9°C 44.4°F6.9°C 87% Calm Calm 1.2 mph1.9 kmh 29.76 in1007.8 mb - 0.00 in0.0 mm 0.02 in0.5 mm
05:20 PM 48.2°F9.0°C 44.2°F6.8°C 86% 1.2 mph NNE1.9 kmh NNE 4.6 mph7.4 kmh 29.76 in1007.8 mb - 0.00 in0.0 mm 0.02 in0.5 mm
05:10 PM 48.4°F9.1°C 44.4°F6.9°C 86% Calm Calm -- 29.75 in1007.5 mb - 0.00 in0.0 mm 0.02 in0.5 mm
05:00 PM 48.6°F9.2°C 44.6°F7.0°C 86% 1.2 mph N1.9 kmh N 2.3 mph3.7 kmh 29.75 in1007.5 mb - 0.00 in0.0 mm 0.02 in0.5 mm
04:50 PM 48.9°F9.4°C 44.9°F7.2°C 86% Calm Calm 2.3 mph3.7 kmh 29.75 in1007.5 mb - 0.00 in0.0 mm 0.02 in0.5 mm
04:40 PM 49.1°F9.5°C 45.4°F7.4°C 87% Calm Calm 2.3 mph3.7 kmh 29.75 in1007.5 mb - 0.00 in0.0 mm 0.02 in0.5 mm
04:30 PM 49.3°F9.6°C 45.6°F7.6°C 87% 1.2 mph NNE1.9 kmh NNE 3.5 mph5.6 kmh 29.74 in1007.1 mb - 0.00 in0.0 mm 0.02 in0.5 mm
04:20 PM 49.4°F9.7°C 45.7°F7.6°C 87% Calm Calm 2.3 mph3.7 kmh 29.74 in1007.1 mb - 0.00 in0.0 mm 0.02 in0.5 mm
04:10 PM 49.7°F9.8°C 46.3°F7.9°C 88% Calm Calm 2.3 mph3.7 kmh 29.74 in1007.1 mb - 0.00 in0.0 mm 0.02 in0.5 mm
04:00 PM 50.0°F10.0°C 46.9°F8.3°C 89% Calm Calm 1.2 mph1.9 kmh 29.74 in1007.1 mb - 0.00 in0.0 mm 0.02 in0.5 mm
03:50 PM 50.0°F10.0°C 47.5°F8.6°C 91% 1.2 mph NE1.9 kmh NE 3.5 mph5.6 kmh 29.73 in1006.8 mb - 0.00 in0.0 mm 0.02 in0.5 mm
03:40 PM 49.9°F9.9°C 47.7°F8.7°C 92% Calm Calm -- 29.73 in1006.8 mb - 0.00 in0.0 mm 0.02 in0.5 mm
03:30 PM 49.7°F9.8°C 48.0°F8.9°C 94% 1.2 mph NE1.9 kmh NE 1.2 mph1.9 kmh 29.72 in1006.4 mb - 0.00 in0.0 mm 0.02 in0.5 mm
03:20 PM 49.4°F9.7°C 48.3°F9.1°C 96% Calm Calm 2.3 mph3.7 kmh 29.72 in1006.4 mb - 0.00 in0.0 mm 0.02 in0.5 mm
03:10 PM 48.7°F9.3°C 47.6°F8.7°C 96% Calm Calm 1.2 mph1.9 kmh 29.71 in1006.1 mb - 0.00 in0.0 mm 0.02 in0.5 mm
03:00 PM 48.2°F9.0°C 47.1°F8.4°C 96% Calm Calm -- 29.71 in1006.1 mb - 0.00 in0.0 mm 0.02 in0.5 mm
02:50 PM 47.8°F8.8°C 46.7°F8.2°C 96% Calm Calm -- 29.71 in1006.1 mb - 0.00 in0.0 mm 0.02 in0.5 mm
02:40 PM 47.5°F8.6°C 46.4°F8.0°C 96% Calm Calm 1.2 mph1.9 kmh 29.72 in1006.4 mb - 0.00 in0.0 mm 0.02 in0.5 mm
02:30 PM 47.6°F8.7°C 46.5°F8.1°C 96% Calm Calm 1.2 mph1.9 kmh 29.72 in1006.4 mb - 0.00 in0.0 mm 0.02 in0.5 mm
02:20 PM 48.6°F9.2°C 47.8°F8.8°C 97% 1.2 mph NW1.9 kmh NW 2.3 mph3.7 kmh 29.71 in1006.1 mb - 0.00 in0.0 mm 0.02 in0.5 mm
02:10 PM 48.4°F9.1°C 47.6°F8.7°C 97% Calm Calm 1.2 mph1.9 kmh 29.71 in1006.1 mb - 0.00 in0.0 mm 0.02 in0.5 mm
02:00 PM 48.3°F9.1°C 47.5°F8.6°C 97% Calm Calm 1.2 mph1.9 kmh 29.70 in1005.8 mb - 0.00 in0.0 mm 0.02 in0.5 mm
01:50 PM 48.0°F8.9°C 47.2°F8.4°C 97% Calm Calm 1.2 mph1.9 kmh 29.71 in1006.1 mb - 0.00 in0.0 mm 0.02 in0.5 mm
01:40 PM 47.5°F8.6°C 46.7°F8.2°C 97% 1.2 mph N1.9 kmh N 3.5 mph5.6 kmh 29.72 in1006.4 mb - 0.00 in0.0 mm 0.02 in0.5 mm
01:30 PM 47.1°F8.4°C 46.5°F8.1°C 98% Calm Calm -- 29.72 in1006.4 mb - 0.00 in0.0 mm 0.02 in0.5 mm
01:20 PM 46.6°F8.1°C 46.0°F7.8°C 98% Calm Calm 1.2 mph1.9 kmh 29.72 in1006.4 mb - 0.00 in0.0 mm 0.02 in0.5 mm
01:10 PM 46.1°F7.8°C 45.6°F7.6°C 98% 1.2 mph N1.9 kmh N 2.3 mph3.7 kmh 29.72 in1006.4 mb - 0.00 in0.0 mm 0.02 in0.5 mm
01:00 PM 45.9°F7.7°C 45.4°F7.4°C 98% Calm Calm 2.3 mph3.7 kmh 29.73 in1006.8 mb - 0.00 in0.0 mm 0.02 in0.5 mm
12:50 PM 45.4°F7.4°C 44.9°F7.2°C 98% 1.2 mph E1.9 kmh E 2.3 mph3.7 kmh 29.73 in1006.8 mb - 0.00 in0.0 mm 0.02 in0.5 mm
12:40 PM 45.7°F7.6°C 45.2°F7.3°C 98% 1.2 mph NW1.9 kmh NW 2.3 mph3.7 kmh 29.73 in1006.8 mb - 0.00 in0.0 mm 0.02 in0.5 mm
12:30 PM 45.5°F7.5°C 45.0°F7.2°C 98% Calm Calm -- 29.73 in1006.8 mb - 0.00 in0.0 mm 0.02 in0.5 mm
12:20 PM 45.3°F7.4°C 44.8°F7.1°C 98% Calm Calm -- 29.74 in1007.1 mb - 0.00 in0.0 mm 0.02 in0.5 mm
12:10 PM 45.0°F7.2°C 44.4°F6.9°C 98% Calm Calm 1.2 mph1.9 kmh 29.74 in1007.1 mb - 0.00 in0.0 mm 0.02 in0.5 mm
12:00 PM 45.0°F7.2°C 44.5°F6.9°C 98% Calm Calm 1.2 mph1.9 kmh 29.75 in1007.5 mb - 0.01 in0.3 mm 0.02 in0.5 mm
11:50 AM 44.9°F7.2°C 44.4°F6.9°C 98% Calm Calm 1.2 mph1.9 kmh 29.75 in1007.5 mb - 0.00 in0.0 mm 0.01 in0.3 mm
11:40 AM 44.8°F7.1°C 44.3°F6.8°C 98% Calm Calm 1.2 mph1.9 kmh 29.76 in1007.8 mb - 0.00 in0.0 mm 0.01 in0.3 mm
11:30 AM 44.7°F7.1°C 44.2°F6.8°C 98% 1.2 mph ESE1.9 kmh ESE 2.3 mph3.7 kmh 29.76 in1007.8 mb - 0.00 in0.0 mm 0.01 in0.3 mm
11:20 AM 44.7°F7.1°C 44.2°F6.8°C 98% Calm Calm -- 29.76 in1007.8 mb - 0.00 in0.0 mm 0.01 in0.3 mm
11:10 AM 44.3°F6.8°C 43.8°F6.6°C 98% Calm Calm -- 29.76 in1007.8 mb - 0.00 in0.0 mm 0.01 in0.3 mm
11:00 AM 44.0°F6.7°C 43.5°F6.4°C 98% Calm Calm 2.3 mph3.7 kmh 29.77 in1008.1 mb - 0.00 in0.0 mm 0.01 in0.3 mm
10:50 AM 43.6°F6.4°C 43.0°F6.1°C 98% Calm Calm 1.2 mph1.9 kmh 29.77 in1008.1 mb - 0.00 in0.0 mm 0.01 in0.3 mm
10:40 AM 43.1°F6.2°C 42.6°F5.9°C 98% Calm Calm -- 29.77 in1008.1 mb - 0.00 in0.0 mm 0.01 in0.3 mm
10:30 AM 44.0°F6.7°C 43.5°F6.4°C 98% Calm Calm -- 29.77 in1008.1 mb - 0.00 in0.0 mm 0.01 in0.3 mm
10:20 AM 43.9°F6.6°C 43.4°F6.3°C 98% Calm Calm 1.2 mph1.9 kmh 29.76 in1007.8 mb - 0.00 in0.0 mm 0.01 in0.3 mm
10:10 AM 43.9°F6.6°C 43.4°F6.3°C 98% Calm Calm -- 29.76 in1007.8 mb - 0.00 in0.0 mm 0.01 in0.3 mm
10:00 AM 43.7°F6.5°C 43.2°F6.2°C 98% Calm Calm 2.3 mph3.7 kmh 29.76 in1007.8 mb - 0.00 in0.0 mm 0.01 in0.3 mm
09:50 AM 43.6°F6.4°C 43.1°F6.2°C 98% Calm Calm 1.2 mph1.9 kmh 29.76 in1007.8 mb - 0.00 in0.0 mm 0.01 in0.3 mm
09:40 AM 43.7°F6.5°C 43.2°F6.2°C 98% Calm Calm 1.2 mph1.9 kmh 29.76 in1007.8 mb - 0.00 in0.0 mm 0.01 in0.3 mm
09:30 AM 43.6°F6.4°C 43.1°F6.2°C 98% Calm Calm -- 29.76 in1007.8 mb - 0.00 in0.0 mm 0.01 in0.3 mm
09:20 AM 43.3°F6.3°C 42.8°F6.0°C 98% Calm Calm 1.2 mph1.9 kmh 29.75 in1007.5 mb - 0.00 in0.0 mm 0.01 in0.3 mm
09:10 AM 43.4°F6.3°C 42.9°F6.1°C 98% Calm Calm -- 29.75 in1007.5 mb - 0.00 in0.0 mm 0.01 in0.3 mm
09:00 AM 43.2°F6.2°C 42.7°F5.9°C 98% Calm Calm -- 29.75 in1007.5 mb - 0.00 in0.0 mm 0.01 in0.3 mm
08:50 AM 42.9°F6.1°C 42.4°F5.8°C 98% Calm Calm -- 29.75 in1007.5 mb - 0.00 in0.0 mm 0.01 in0.3 mm
08:40 AM 42.6°F5.9°C 42.1°F5.6°C 98% Calm Calm -- 29.75 in1007.5 mb - 0.00 in0.0 mm 0.01 in0.3 mm
08:30 AM 42.4°F5.8°C 41.9°F5.5°C 98% Calm Calm -- 29.74 in1007.1 mb - 0.00 in0.0 mm 0.01 in0.3 mm
08:20 AM 42.4°F5.8°C 41.9°F5.5°C 98% Calm Calm -- 29.75 in1007.5 mb - 0.00 in0.0 mm 0.01 in0.3 mm
08:10 AM 42.3°F5.7°C 41.8°F5.4°C 98% Calm Calm -- 29.75 in1007.5 mb - 0.00 in0.0 mm 0.01 in0.3 mm
08:00 AM 42.2°F5.7°C 41.7°F5.4°C 98% Calm Calm -- 29.76 in1007.8 mb - 0.00 in0.0 mm 0.01 in0.3 mm
07:50 AM 42.1°F5.6°C 41.6°F5.3°C 98% Calm Calm -- 29.76 in1007.8 mb - 0.00 in0.0 mm 0.01 in0.3 mm